createdAt,value
2022-08-14T15:15:37.460Z,43.33
2022-08-14T15:18:14.791Z,43.51
2022-08-14T15:20:54.833Z,44.38
2022-08-14T15:23:25.179Z,45.54
2022-08-14T15:26:00.567Z,46.61
2022-08-14T15:28:29.706Z,46.74
2022-08-14T15:31:06.619Z,47.09
2022-08-14T15:34:13.502Z,47.58
2022-08-14T15:36:48.589Z,47.68
2022-08-14T15:39:16.751Z,48.61
2022-08-14T15:41:45.329Z,49.28
2022-08-14T15:44:25.589Z,48.64
2022-08-14T15:46:56.415Z,49.20
2022-08-14T15:49:34.538Z,49.82
2022-08-14T15:52:05.024Z,49.85
2022-08-14T15:54:34.006Z,50.73
2022-08-14T15:57:04.584Z,50.89
2022-08-14T15:59:54.048Z,51.09
2022-08-14T16:02:24.506Z,51.13
2022-08-14T16:04:55.967Z,51.98
2022-08-14T16:07:27.676Z,51.70
2022-08-14T16:10:18.625Z,52.54
2022-08-14T16:12:54.595Z,52.72
2022-08-14T16:15:22.674Z,53.03
2022-08-14T16:17:52.936Z,52.87
2022-08-14T16:20:41.425Z,53.40
2022-08-14T16:23:12.345Z,53.65
2022-08-14T16:25:43.919Z,54.17
2022-08-14T16:28:26.961Z,54.33
2022-08-14T16:30:56.037Z,54.76
2022-08-14T16:33:28.091Z,54.97
2022-08-14T16:36:38.047Z,55.30
2022-08-14T16:39:59.771Z,54.75
2022-08-14T16:43:13.298Z,55.16
2022-08-14T16:46:49.406Z,55.45
2022-08-14T16:50:04.217Z,55.70
2022-08-14T16:52:44.305Z,56.97
2022-08-14T16:55:13.889Z,57.41
2022-08-14T16:57:54.527Z,58.45
2022-08-14T17:00:51.563Z,58.88
2022-08-14T17:03:19.314Z,59.00
2022-08-14T17:05:49.336Z,58.94
2022-08-14T17:08:31.672Z,58.88
2022-08-14T17:11:12.435Z,58.93
2022-08-14T17:13:58.408Z,59.17
2022-08-14T17:16:37.748Z,59.53
2022-08-14T17:19:09.802Z,60.65
2022-08-14T17:24:57.534Z,57.19
2022-08-14T17:27:07.972Z,60.06
2022-08-14T17:29:54.604Z,54.50
2022-08-14T17:32:44.301Z,54.22
2022-08-14T17:35:26.662Z,54.81
2022-08-14T17:38:39.133Z,56.89
2022-08-14T17:41:23.565Z,58.39
2022-08-14T17:43:55.024Z,65.13
2022-08-14T17:46:43.334Z,67.62
2022-08-14T17:49:17.506Z,59.79
2022-08-14T17:52:07.830Z,55.39
2022-08-14T17:54:58.853Z,55.27
2022-08-14T17:57:35.544Z,56.92
2022-08-14T18:00:15.057Z,58.37
2022-08-14T18:02:50.390Z,64.56
2022-08-14T18:05:23.497Z,67.14
2022-08-14T18:08:32.643Z,59.60
2022-08-14T18:10:58.360Z,55.56
2022-08-14T18:13:51.033Z,56.78
2022-08-14T18:16:20.188Z,57.65
2022-08-14T18:18:51.608Z,63.21
2022-08-14T18:21:42.512Z,65.75
2022-08-14T18:24:29.093Z,57.65
2022-08-14T18:27:08.893Z,54.04
2022-08-14T18:29:44.574Z,55.11
2022-08-14T18:32:32.646Z,56.77
2022-08-14T18:35:01.152Z,58.74
2022-08-14T18:37:33.179Z,64.89
2022-08-14T18:40:15.812Z,65.82
2022-08-14T18:42:48.095Z,56.45
2022-08-14T18:45:44.972Z,53.82
2022-08-14T18:48:20.915Z,54.09
2022-08-14T18:50:52.361Z,56.03
2022-08-14T18:53:24.775Z,57.02
2022-08-14T18:55:59.818Z,58.02
2022-08-14T18:58:34.008Z,58.98
2022-08-14T19:03:33.983Z,59.27
2022-08-14T19:06:04.506Z,59.13
2022-08-14T19:08:44.313Z,54.62
2022-08-14T19:11:40.535Z,54.96
2022-08-14T19:14:13.392Z,56.40
2022-08-14T19:16:53.474Z,58.36
2022-08-14T19:19:23.951Z,65.27
2022-08-14T19:21:56.801Z,59.22
2022-08-14T19:24:33.698Z,57.80
2022-08-14T19:27:24.117Z,53.57
2022-08-14T19:30:20.081Z,53.79
2022-08-14T19:32:57.073Z,55.47
2022-08-14T19:35:49.334Z,56.65
2022-08-14T19:38:57.526Z,57.42
2022-08-14T19:41:35.502Z,57.69
2022-08-14T19:44:19.582Z,59.02
2022-08-14T19:47:00.962Z,62.66
2022-08-14T19:50:08.708Z,59.07
2022-08-14T19:52:25.891Z,59.54
2022-08-14T19:54:57.686Z,54.90
2022-08-14T19:57:30.801Z,56.11
2022-08-14T20:00:28.993Z,56.99
2022-08-14T20:03:10.706Z,57.48
2022-08-14T20:05:43.113Z,63.63
2022-08-14T20:09:05.264Z,61.43
2022-08-14T20:11:20.481Z,58.95
2022-08-14T20:14:22.827Z,55.06
2022-08-14T20:17:04.700Z,55.70
2022-08-14T20:19:37.556Z,57.41
2022-08-14T20:22:37.301Z,64.50
2022-08-14T20:25:16.531Z,65.19
2022-08-14T20:27:47.522Z,58.32
2022-08-14T20:30:34.000Z,54.72
2022-08-14T20:33:08.027Z,56.08
2022-08-14T20:35:38.966Z,57.63
2022-08-14T20:38:29.586Z,63.62
2022-08-14T20:41:06.932Z,65.20
2022-08-14T20:43:57.657Z,58.51
2022-08-14T20:46:31.676Z,54.73
2022-08-14T20:49:08.957Z,56.79
2022-08-14T20:51:54.511Z,58.06
2022-08-14T20:54:34.564Z,65.26
2022-08-14T20:57:14.032Z,67.27
2022-08-14T20:59:50.317Z,58.74
2022-08-14T21:02:28.874Z,54.97
2022-08-14T21:05:03.568Z,56.08
2022-08-14T21:07:36.293Z,57.81
2022-08-14T21:10:35.358Z,63.40
2022-08-14T21:14:18.731Z,67.61
2022-08-14T21:15:57.568Z,58.97
2022-08-14T21:18:32.610Z,55.28
2022-08-14T21:21:06.934Z,56.71
2022-08-14T21:23:54.686Z,60.79
2022-08-14T21:26:50.630Z,65.22
2022-08-14T21:29:21.024Z,57.07
2022-08-14T21:31:56.062Z,54.74
2022-08-14T21:34:27.226Z,56.24
2022-08-14T21:37:07.775Z,58.09
2022-08-14T21:42:06.494Z,59.34
2022-08-14T21:44:42.768Z,59.05
2022-08-14T21:47:13.138Z,55.28
2022-08-14T21:49:47.783Z,56.38
2022-08-14T21:52:51.246Z,58.03
2022-08-14T21:55:10.211Z,65.84
2022-08-14T21:57:56.090Z,64.10
2022-08-14T22:00:42.461Z,58.15
2022-08-14T22:03:14.332Z,55.46
2022-08-14T22:05:43.491Z,57.19
2022-08-14T22:13:17.613Z,58.64
2022-08-14T22:15:49.379Z,55.26
2022-08-14T22:18:20.674Z,55.96
2022-08-14T22:20:53.537Z,54.45
2022-08-14T22:25:52.747Z,59.32
2022-08-14T22:28:33.015Z,60.00
2022-08-14T22:31:10.488Z,55.92
2022-08-14T22:33:39.797Z,57.22
2022-08-14T22:39:11.081Z,62.18
2022-08-14T22:41:43.032Z,58.60
2022-08-14T22:44:19.351Z,55.40
2022-08-14T22:46:47.624Z,57.40
2022-08-14T22:52:49.361Z,59.18
2022-08-14T22:54:55.490Z,58.38
2022-08-14T22:57:37.297Z,55.75
2022-08-14T23:00:08.933Z,57.16
2022-08-14T23:08:56.115Z,59.83
2022-08-14T23:10:31.775Z,56.09
2022-08-14T23:13:04.275Z,57.94
2022-08-14T23:20:33.374Z,57.74
2022-08-14T23:23:01.012Z,56.28
2022-08-14T23:25:56.648Z,54.08
2022-08-14T23:28:33.548Z,55.32
2022-08-14T23:31:14.232Z,56.98
2022-08-14T23:39:10.127Z,56.04
2022-08-14T23:41:46.873Z,55.70
2022-08-14T23:44:24.289Z,53.48
2022-08-14T23:46:56.840Z,55.91
2022-08-14T23:49:56.609Z,57.47
2022-08-14T23:57:44.004Z,58.17
